createdAt,value
2023-05-25T00:00:16.250Z,46.01
2023-05-25T00:02:44.751Z,46.20
2023-05-25T00:05:11.541Z,46.30
2023-05-25T00:07:38.994Z,46.65
2023-05-25T00:10:06.920Z,46.95
2023-05-25T00:12:34.378Z,47.16
2023-05-25T00:15:01.266Z,47.52
2023-05-25T00:17:30.105Z,47.84
2023-05-25T00:19:58.195Z,48.20
2023-05-25T00:22:29.164Z,48.40
2023-05-25T00:24:56.118Z,48.45
2023-05-25T00:27:23.078Z,48.46
2023-05-25T00:29:49.756Z,48.50
2023-05-25T00:32:16.574Z,48.56
2023-05-25T00:34:43.372Z,48.75
2023-05-25T00:37:10.041Z,48.84
2023-05-25T00:39:36.727Z,49.26
2023-05-25T00:42:03.952Z,49.46
2023-05-25T00:44:32.187Z,49.64
2023-05-25T00:46:59.880Z,49.65
2023-05-25T00:49:28.372Z,49.95
2023-05-25T00:51:55.156Z,50.12
2023-05-25T00:54:22.709Z,50.33
2023-05-25T00:56:57.541Z,50.17
2023-05-25T00:59:37.011Z,50.41
2023-05-25T01:02:07.695Z,50.33
2023-05-25T01:04:38.411Z,50.26
2023-05-25T01:07:07.075Z,50.24
2023-05-25T01:09:35.529Z,50.36
2023-05-25T01:12:03.958Z,50.59
2023-05-25T01:14:32.784Z,50.88
2023-05-25T01:16:59.924Z,50.93
2023-05-25T01:19:27.020Z,50.94
2023-05-25T01:22:04.231Z,51.02
2023-05-25T01:24:46.467Z,51.06
2023-05-25T01:27:18.511Z,51.03
2023-05-25T01:29:46.808Z,51.15
2023-05-25T01:32:14.631Z,51.38
2023-05-25T01:34:43.507Z,51.36
2023-05-25T01:37:13.539Z,51.32
2023-05-25T01:39:43.784Z,51.30
2023-05-25T01:42:10.650Z,51.56
2023-05-25T01:44:38.971Z,51.41
2023-05-25T01:47:29.529Z,51.46
2023-05-25T01:50:13.561Z,51.39
2023-05-25T01:52:45.676Z,51.48
2023-05-25T01:55:15.075Z,51.79
2023-05-25T01:57:45.717Z,52.11
2023-05-25T02:00:13.551Z,52.24
2023-05-25T02:02:44.017Z,52.25
2023-05-25T02:05:11.669Z,52.56
2023-05-25T02:07:38.401Z,52.43
2023-05-25T02:10:05.574Z,52.72
2023-05-25T02:12:32.276Z,52.70
2023-05-25T02:14:58.950Z,53.02
2023-05-25T02:17:28.076Z,52.95
2023-05-25T02:19:54.965Z,53.17
2023-05-25T02:22:22.807Z,53.05
2023-05-25T02:24:49.474Z,53.07
2023-05-25T02:27:16.205Z,52.96
2023-05-25T02:29:43.163Z,53.12
2023-05-25T02:32:09.890Z,53.01
2023-05-25T02:34:36.559Z,53.19
2023-05-25T02:37:03.272Z,53.23
2023-05-25T02:39:30.008Z,53.22
2023-05-25T02:41:56.692Z,53.41
2023-05-25T02:44:23.356Z,53.53
2023-05-25T02:46:50.099Z,53.69
2023-05-25T02:49:16.890Z,53.77
2023-05-25T02:51:43.537Z,53.76
2023-05-25T02:54:10.267Z,53.96
2023-05-25T02:56:37.189Z,54.15
2023-05-25T02:59:03.975Z,54.00
2023-05-25T03:01:31.857Z,54.37
2023-05-25T03:03:58.708Z,54.15
2023-05-25T03:06:26.344Z,54.18
2023-05-25T03:08:53.231Z,54.15
2023-05-25T03:11:19.914Z,54.45
2023-05-25T03:13:46.586Z,54.16
2023-05-25T03:16:13.289Z,54.47
2023-05-25T03:18:40.052Z,54.62
2023-05-25T03:21:06.852Z,54.88
2023-05-25T03:23:33.543Z,54.89
2023-05-25T03:26:00.437Z,55.12
2023-05-25T03:28:27.174Z,55.10
2023-05-25T03:30:53.834Z,55.11
2023-05-25T03:33:20.510Z,55.23
2023-05-25T03:35:47.191Z,55.21
2023-05-25T03:38:13.909Z,55.23
2023-05-25T03:40:40.580Z,55.12
2023-05-25T03:43:07.271Z,55.18
2023-05-25T03:45:33.929Z,55.33
2023-05-25T03:48:00.958Z,55.39
2023-05-25T03:50:27.786Z,55.43
2023-05-25T03:52:54.485Z,55.61
2023-05-25T03:55:21.212Z,55.62
2023-05-25T03:57:47.875Z,55.76
2023-05-25T04:00:15.053Z,55.86
2023-05-25T04:02:41.896Z,55.91
2023-05-25T04:05:09.086Z,55.97
2023-05-25T04:07:37.126Z,55.87
2023-05-25T04:10:04.760Z,56.06
2023-05-25T04:12:32.478Z,56.11
2023-05-25T04:14:59.405Z,56.12
2023-05-25T04:17:26.195Z,56.19
2023-05-25T04:19:52.903Z,56.33
2023-05-25T04:22:19.739Z,56.53
2023-05-25T04:24:46.751Z,56.41
2023-05-25T04:27:14.451Z,56.65
2023-05-25T04:29:43.973Z,56.63
2023-05-25T04:32:10.772Z,56.62
2023-05-25T04:34:37.800Z,56.77
2023-05-25T04:37:05.730Z,57.01
2023-05-25T04:39:32.940Z,57.11
2023-05-25T04:42:01.679Z,57.28
2023-05-25T04:44:29.969Z,57.15
2023-05-25T04:46:57.016Z,57.04
2023-05-25T04:49:23.765Z,56.94
2023-05-25T04:51:51.590Z,56.97
2023-05-25T04:54:18.490Z,57.09
2023-05-25T04:56:45.303Z,57.28
2023-05-25T04:59:12.140Z,57.46
2023-05-25T05:01:41.024Z,57.49
2023-05-25T05:04:08.531Z,57.59
2023-05-25T05:06:36.583Z,57.58
2023-05-25T05:09:03.680Z,57.54
2023-05-25T05:11:30.490Z,57.59
2023-05-25T05:13:57.340Z,57.53
2023-05-25T05:16:24.023Z,57.53
2023-05-25T05:18:50.767Z,57.77
2023-05-25T05:21:17.503Z,57.77
2023-05-25T05:23:44.319Z,57.68
2023-05-25T05:26:11.809Z,57.80
2023-05-25T05:28:38.540Z,57.69
2023-05-25T05:31:05.471Z,57.87
2023-05-25T05:33:32.202Z,58.00
2023-05-25T05:36:00.090Z,58.23
2023-05-25T05:38:27.793Z,58.12
2023-05-25T05:40:54.452Z,58.05
2023-05-25T05:43:21.132Z,58.40
2023-05-25T05:45:47.803Z,58.11
2023-05-25T05:48:14.497Z,57.93
2023-05-25T05:50:42.367Z,57.83
2023-05-25T05:53:10.054Z,57.58
2023-05-25T05:55:36.932Z,57.03
2023-05-25T05:58:03.730Z,56.62
2023-05-25T06:00:30.566Z,56.04
2023-05-25T06:02:57.491Z,55.99
2023-05-25T06:05:24.336Z,54.56
2023-05-25T06:07:51.886Z,54.50
2023-05-25T06:10:18.591Z,53.95
2023-05-25T06:12:45.236Z,53.74
2023-05-25T06:15:12.041Z,53.55
2023-05-25T06:17:38.766Z,52.88
2023-05-25T06:20:06.805Z,52.90
2023-05-25T06:22:33.624Z,52.27
2023-05-25T06:25:02.379Z,51.81
2023-05-25T06:27:29.049Z,51.42
2023-05-25T06:29:55.727Z,50.97
2023-05-25T06:32:22.461Z,50.72
2023-05-25T06:34:49.189Z,50.56
2023-05-25T06:37:15.875Z,50.32
2023-05-25T06:39:43.332Z,50.41
2023-05-25T06:42:11.706Z,50.49
2023-05-25T06:44:38.436Z,50.39
2023-05-25T06:47:05.655Z,50.17
2023-05-25T06:49:32.829Z,50.22
2023-05-25T06:51:59.578Z,50.39
2023-05-25T06:54:26.840Z,50.11
2023-05-25T06:56:53.677Z,49.84
2023-05-25T06:59:20.360Z,49.58
2023-05-25T07:01:47.595Z,49.12
2023-05-25T07:04:14.517Z,48.78
2023-05-25T07:06:41.223Z,48.82
2023-05-25T07:09:07.932Z,48.64
2023-05-25T07:11:34.684Z,48.01
2023-05-25T07:14:01.601Z,47.86
2023-05-25T07:16:28.387Z,47.73
2023-05-25T07:18:55.207Z,47.49
2023-05-25T07:21:21.906Z,46.76
2023-05-25T07:23:48.651Z,46.91
2023-05-25T07:26:15.819Z,46.61
2023-05-25T07:28:42.512Z,46.52
2023-05-25T07:31:11.154Z,46.08
2023-05-25T07:33:37.828Z,46.24
2023-05-25T07:36:04.799Z,45.91
2023-05-25T07:38:31.450Z,45.89
2023-05-25T07:40:58.093Z,45.89
2023-05-25T07:43:24.962Z,45.67
2023-05-25T07:45:51.714Z,45.76
2023-05-25T07:48:18.428Z,45.34
2023-05-25T07:50:46.129Z,45.27
2023-05-25T07:53:12.849Z,45.26
2023-05-25T07:55:39.537Z,44.87
2023-05-25T07:58:07.590Z,44.74
2023-05-25T08:00:34.406Z,44.71
2023-05-25T08:03:02.604Z,44.65
2023-05-25T08:05:29.625Z,44.35
2023-05-25T08:07:56.392Z,44.53
2023-05-25T08:10:23.793Z,44.23
2023-05-25T08:12:52.271Z,44.06
2023-05-25T08:15:19.412Z,44.06
2023-05-25T08:17:46.647Z,43.92
2023-05-25T08:20:14.552Z,43.47
2023-05-25T08:22:41.309Z,43.53
2023-05-25T08:25:08.400Z,43.13
2023-05-25T08:27:36.240Z,43.30
2023-05-25T08:30:07.045Z,42.87
2023-05-25T08:32:33.950Z,42.74
2023-05-25T08:35:02.010Z,42.62
2023-05-25T08:37:29.366Z,42.30
2023-05-25T08:39:56.089Z,42.02
2023-05-25T08:42:23.936Z,41.90
2023-05-25T08:44:50.664Z,41.80
2023-05-25T08:47:17.828Z,41.97
2023-05-25T08:49:45.375Z,41.67
2023-05-25T08:52:15.011Z,41.66
2023-05-25T08:54:45.161Z,41.56
2023-05-25T08:57:24.134Z,41.34
2023-05-25T08:59:57.404Z,41.42
2023-05-25T09:02:53.574Z,41.10
2023-05-25T09:05:20.993Z,40.62
2023-05-25T09:07:48.755Z,40.68
2023-05-25T09:10:15.813Z,40.94
2023-05-25T09:12:43.791Z,40.99
2023-05-25T09:15:11.200Z,40.94
2023-05-25T09:17:38.502Z,40.86
2023-05-25T09:20:06.158Z,40.86
2023-05-25T09:22:32.921Z,40.52
2023-05-25T09:25:00.601Z,40.51
2023-05-25T09:27:27.255Z,40.32
2023-05-25T09:29:54.072Z,40.01
2023-05-25T09:32:21.166Z,40.09
2023-05-25T09:34:48.028Z,40.35
2023-05-25T09:37:19.478Z,40.35
2023-05-25T09:39:47.959Z,39.80
2023-05-25T09:42:14.807Z,39.80
2023-05-25T09:44:42.907Z,39.41
2023-05-25T09:47:10.176Z,39.25
2023-05-25T09:49:37.317Z,39.24
2023-05-25T09:52:04.221Z,39.08
2023-05-25T09:54:31.332Z,38.89
2023-05-25T09:56:58.008Z,38.74
2023-05-25T09:59:24.716Z,38.66
2023-05-25T10:01:55.049Z,38.54
2023-05-25T10:04:21.870Z,38.04
2023-05-25T10:06:52.055Z,37.94
2023-05-25T10:09:20.150Z,37.86
2023-05-25T10:11:48.238Z,37.71
2023-05-25T10:14:27.966Z,37.62
2023-05-25T10:16:57.996Z,37.24
2023-05-25T10:19:37.788Z,36.59
2023-05-25T10:22:13.164Z,36.87
2023-05-25T10:24:56.467Z,36.58
2023-05-25T10:27:27.913Z,36.35
2023-05-25T10:29:57.412Z,36.40
2023-05-25T10:32:24.966Z,36.31
2023-05-25T10:34:53.446Z,36.30
2023-05-25T10:37:20.895Z,36.89
2023-05-25T10:39:49.956Z,36.38
2023-05-25T10:42:18.694Z,36.26
2023-05-25T10:44:46.078Z,35.73
2023-05-25T10:47:13.306Z,35.41
2023-05-25T10:50:03.103Z,35.23
2023-05-25T10:52:31.754Z,35.19
2023-05-25T10:55:02.120Z,35.34
2023-05-25T10:57:29.080Z,35.54
2023-05-25T11:00:02.139Z,35.12
2023-05-25T11:02:29.655Z,34.90
2023-05-25T11:05:21.311Z,34.64
2023-05-25T11:07:57.921Z,34.47
2023-05-25T11:10:54.133Z,34.02
2023-05-25T11:13:38.744Z,33.99
2023-05-25T11:16:34.566Z,34.45
2023-05-25T11:19:01.972Z,34.67
2023-05-25T11:21:29.032Z,34.46
2023-05-25T11:24:02.853Z,34.30
2023-05-25T11:26:31.188Z,34.11
2023-05-25T11:28:59.165Z,33.97
2023-05-25T11:31:36.429Z,33.74
2023-05-25T11:34:06.078Z,33.81
2023-05-25T11:36:35.819Z,34.08
2023-05-25T11:39:13.880Z,33.99
2023-05-25T11:41:55.493Z,33.60
2023-05-25T11:44:30.365Z,33.62
2023-05-25T11:47:01.850Z,33.41
2023-05-25T11:49:28.968Z,33.85
2023-05-25T11:51:57.609Z,33.47
2023-05-25T11:54:28.631Z,33.90
2023-05-25T11:56:59.640Z,34.31
2023-05-25T11:59:29.841Z,34.18
2023-05-25T12:01:59.754Z,34.04
2023-05-25T12:04:26.618Z,33.22
2023-05-25T12:06:53.631Z,33.05
2023-05-25T12:09:24.284Z,33.45
2023-05-25T12:11:51.684Z,33.29
2023-05-25T12:14:18.610Z,32.84
2023-05-25T12:16:45.760Z,32.55
2023-05-25T12:19:13.739Z,32.10
2023-05-25T12:21:41.486Z,31.91
2023-05-25T12:24:09.911Z,31.16
2023-05-25T12:26:48.007Z,31.90
2023-05-25T12:29:15.153Z,32.37
2023-05-25T12:31:41.809Z,32.53
2023-05-25T12:34:14.318Z,31.91
2023-05-25T12:36:43.761Z,31.55
2023-05-25T12:39:12.280Z,31.27
2023-05-25T12:41:47.975Z,31.49
2023-05-25T12:44:17.668Z,31.03
2023-05-25T12:46:44.701Z,30.57
2023-05-25T12:49:31.549Z,30.53
2023-05-25T12:52:01.191Z,29.89
2023-05-25T12:54:38.459Z,30.01
2023-05-25T12:57:06.825Z,29.80
2023-05-25T12:59:35.245Z,29.77
2023-05-25T13:02:02.950Z,29.84
2023-05-25T13:04:29.749Z,29.78
2023-05-25T13:06:56.426Z,29.86
2023-05-25T13:09:29.387Z,30.23
2023-05-25T13:11:57.135Z,30.08
2023-05-25T13:14:25.179Z,30.04
2023-05-25T13:16:53.202Z,29.59
2023-05-25T13:19:22.152Z,29.35
2023-05-25T13:21:52.080Z,28.78
2023-05-25T13:24:21.942Z,28.60
2023-05-25T13:26:50.881Z,28.58
2023-05-25T13:29:18.312Z,28.54
2023-05-25T13:31:45.252Z,28.17
2023-05-25T13:34:12.149Z,28.04
2023-05-25T13:36:38.879Z,28.15
2023-05-25T13:39:05.621Z,28.05
2023-05-25T13:41:32.377Z,28.37
2023-05-25T13:43:59.300Z,28.08
2023-05-25T13:46:34.721Z,28.02
2023-05-25T13:49:03.503Z,28.04
2023-05-25T13:51:30.692Z,27.83
2023-05-25T13:53:57.420Z,27.39
2023-05-25T13:56:24.137Z,27.48
2023-05-25T13:58:50.963Z,27.48
2023-05-25T14:01:17.728Z,27.73
2023-05-25T14:03:44.648Z,27.43
2023-05-25T14:06:11.566Z,28.13
2023-05-25T14:08:38.606Z,28.34
2023-05-25T14:11:05.594Z,27.63
2023-05-25T14:13:33.544Z,28.13
2023-05-25T14:16:00.268Z,28.17
2023-05-25T14:18:27.025Z,28.35
2023-05-25T14:20:53.718Z,28.26
2023-05-25T14:23:21.122Z,28.02
2023-05-25T14:25:48.867Z,28.49
2023-05-25T14:28:15.934Z,28.31
2023-05-25T14:30:42.613Z,27.79
2023-05-25T14:33:14.178Z,27.73
2023-05-25T14:35:42.960Z,26.95
2023-05-25T14:38:10.395Z,26.94
2023-05-25T14:40:37.096Z,27.45
2023-05-25T14:43:03.957Z,27.27
2023-05-25T14:45:30.658Z,27.46
2023-05-25T14:48:08.289Z,27.76
2023-05-25T14:50:44.144Z,26.93
2023-05-25T14:53:11.071Z,27.25
2023-05-25T14:55:37.769Z,27.44
2023-05-25T14:58:04.451Z,27.00
2023-05-25T15:00:31.136Z,27.02
2023-05-25T15:02:58.215Z,26.80
2023-05-25T15:05:25.066Z,26.74
2023-05-25T15:07:51.731Z,26.73
2023-05-25T15:10:18.464Z,26.54
2023-05-25T15:12:45.144Z,26.55
2023-05-25T15:15:12.361Z,26.74
2023-05-25T15:17:39.120Z,26.51
2023-05-25T15:20:06.532Z,26.71
2023-05-25T15:22:33.230Z,26.21
2023-05-25T15:25:02.249Z,25.62
2023-05-25T15:27:29.219Z,26.04
2023-05-25T15:29:55.897Z,26.28
2023-05-25T15:32:22.544Z,26.52
2023-05-25T15:34:49.234Z,26.45
2023-05-25T15:37:15.876Z,26.15
2023-05-25T15:39:42.600Z,26.01
2023-05-25T15:42:09.335Z,26.21
2023-05-25T15:44:36.089Z,26.70
2023-05-25T15:47:02.824Z,26.70
2023-05-25T15:49:29.496Z,27.02
2023-05-25T15:51:56.161Z,27.53
2023-05-25T15:54:22.848Z,27.69
2023-05-25T15:56:49.588Z,27.93
2023-05-25T15:59:16.290Z,27.96
2023-05-25T16:01:43.020Z,28.57
2023-05-25T16:04:09.871Z,28.72
2023-05-25T16:06:36.981Z,29.17
2023-05-25T16:09:04.378Z,29.20
2023-05-25T16:11:33.120Z,29.20
2023-05-25T16:13:59.788Z,29.56
2023-05-25T16:16:26.508Z,29.58
2023-05-25T16:18:53.309Z,29.71
2023-05-25T16:21:20.060Z,29.72
2023-05-25T16:23:46.803Z,29.83
2023-05-25T16:26:13.468Z,29.67
2023-05-25T16:28:40.262Z,29.57
2023-05-25T16:31:07.345Z,29.30
2023-05-25T16:33:34.480Z,29.41
2023-05-25T16:36:01.414Z,29.23
2023-05-25T16:38:28.183Z,29.42
2023-05-25T16:40:54.919Z,29.57
2023-05-25T16:43:25.093Z,29.58
2023-05-25T16:45:52.529Z,29.39
2023-05-25T16:48:21.573Z,29.44
2023-05-25T16:50:49.824Z,29.37
2023-05-25T16:53:16.493Z,29.34
2023-05-25T16:55:43.386Z,29.80
2023-05-25T16:58:10.343Z,29.97
2023-05-25T17:00:37.000Z,30.54
2023-05-25T17:03:03.796Z,30.47
2023-05-25T17:05:30.661Z,30.57
2023-05-25T17:07:57.372Z,30.74
2023-05-25T17:10:24.084Z,30.57
2023-05-25T17:12:51.386Z,30.74
2023-05-25T17:15:18.094Z,30.75
2023-05-25T17:17:44.835Z,30.56
2023-05-25T17:20:11.874Z,30.48
2023-05-25T17:22:38.910Z,30.18
2023-05-25T17:25:06.604Z,30.39
2023-05-25T17:27:33.587Z,30.64
2023-05-25T17:30:00.392Z,30.44
2023-05-25T17:32:27.152Z,30.59
2023-05-25T17:34:53.954Z,30.69
2023-05-25T17:37:21.235Z,30.73
2023-05-25T17:39:48.057Z,30.71
2023-05-25T17:42:14.769Z,30.81
2023-05-25T17:44:42.663Z,30.99
2023-05-25T17:47:11.075Z,31.08
2023-05-25T17:49:38.116Z,31.23
2023-05-25T17:52:05.044Z,31.39
2023-05-25T17:54:31.693Z,31.54
2023-05-25T17:56:58.390Z,31.90
2023-05-25T17:59:25.168Z,32.00
2023-05-25T18:01:51.929Z,31.92
2023-05-25T18:04:19.706Z,32.23
2023-05-25T18:06:49.828Z,32.05
2023-05-25T18:09:16.925Z,31.91
2023-05-25T18:11:43.591Z,32.28
2023-05-25T18:14:10.327Z,32.33
2023-05-25T18:16:41.543Z,32.10
2023-05-25T18:19:09.564Z,32.51
2023-05-25T18:21:40.537Z,32.41
2023-05-25T18:24:08.435Z,32.58
2023-05-25T18:26:36.137Z,32.62
2023-05-25T18:29:03.144Z,32.74
2023-05-25T18:31:32.308Z,33.36
2023-05-25T18:33:59.888Z,33.15
2023-05-25T18:36:26.790Z,33.26
2023-05-25T18:38:53.444Z,33.25
2023-05-25T18:41:21.604Z,33.50
2023-05-25T18:43:49.185Z,33.63
2023-05-25T18:46:16.457Z,34.00
2023-05-25T18:48:43.233Z,33.90
2023-05-25T18:51:09.914Z,34.32
2023-05-25T18:53:36.620Z,34.37
2023-05-25T18:56:03.599Z,34.41
2023-05-25T18:58:30.256Z,34.66
2023-05-25T19:00:56.923Z,34.86
2023-05-25T19:03:23.672Z,35.01
2023-05-25T19:05:50.389Z,35.04
2023-05-25T19:08:17.070Z,35.22
2023-05-25T19:10:43.804Z,35.48
2023-05-25T19:13:10.492Z,35.71
2023-05-25T19:15:37.272Z,35.63
2023-05-25T19:18:04.523Z,35.67
2023-05-25T19:20:32.863Z,35.92
2023-05-25T19:22:59.946Z,36.17
2023-05-25T19:25:26.806Z,36.15
2023-05-25T19:27:53.718Z,36.63
2023-05-25T19:30:20.520Z,36.52
2023-05-25T19:32:47.254Z,36.80
2023-05-25T19:35:14.161Z,36.96
2023-05-25T19:37:41.348Z,37.14
2023-05-25T19:40:09.599Z,37.29
2023-05-25T19:42:36.520Z,37.87
2023-05-25T19:45:03.816Z,37.94
2023-05-25T19:47:31.521Z,38.14
2023-05-25T19:49:58.275Z,38.49
2023-05-25T19:52:24.935Z,38.75
2023-05-25T19:54:51.624Z,38.68
2023-05-25T19:57:20.111Z,39.11
2023-05-25T19:59:50.051Z,39.31
2023-05-25T20:02:17.081Z,39.40
2023-05-25T20:04:43.962Z,39.88
2023-05-25T20:07:10.778Z,39.90
2023-05-25T20:09:38.824Z,39.90
2023-05-25T20:12:06.518Z,40.19
2023-05-25T20:14:35.973Z,40.05
2023-05-25T20:17:03.022Z,40.82
2023-05-25T20:19:29.773Z,40.60
2023-05-25T20:21:57.976Z,41.18
2023-05-25T20:24:24.713Z,41.11
2023-05-25T20:26:56.963Z,41.34
2023-05-25T20:29:23.987Z,41.37
2023-05-25T20:31:50.984Z,41.62
2023-05-25T20:34:18.105Z,41.79
2023-05-25T20:36:45.085Z,42.23
2023-05-25T20:39:11.866Z,42.46
2023-05-25T20:41:38.525Z,42.59
2023-05-25T20:44:09.003Z,42.42
2023-05-25T20:46:36.201Z,42.59
2023-05-25T20:49:03.623Z,42.98
2023-05-25T20:51:31.229Z,42.98
2023-05-25T20:53:57.906Z,43.30
2023-05-25T20:56:26.933Z,43.60
2023-05-25T20:58:53.704Z,43.41
2023-05-25T21:01:20.564Z,43.75
2023-05-25T21:03:47.354Z,43.83
2023-05-25T21:06:14.481Z,44.16
2023-05-25T21:08:41.188Z,44.35
2023-05-25T21:11:07.880Z,44.18
2023-05-25T21:13:34.614Z,44.40
2023-05-25T21:16:01.356Z,44.49
2023-05-25T21:18:28.073Z,44.48
2023-05-25T21:20:54.823Z,44.85
2023-05-25T21:23:21.645Z,44.84
2023-05-25T21:25:48.669Z,44.93
2023-05-25T21:28:15.532Z,45.24
2023-05-25T21:30:42.195Z,45.40
2023-05-25T21:33:09.018Z,45.40
2023-05-25T21:35:35.710Z,45.72
2023-05-25T21:38:02.429Z,45.74
2023-05-25T21:40:29.134Z,46.10
2023-05-25T21:42:55.896Z,46.17
2023-05-25T21:45:22.565Z,46.51
2023-05-25T21:47:49.290Z,46.39
2023-05-25T21:50:16.313Z,46.69
2023-05-25T21:52:42.970Z,46.57
2023-05-25T21:55:09.894Z,46.93
2023-05-25T21:57:36.827Z,46.90
2023-05-25T22:00:06.281Z,47.23
2023-05-25T22:02:33.055Z,47.29
2023-05-25T22:04:59.743Z,47.46
2023-05-25T22:07:26.542Z,47.41
2023-05-25T22:09:53.217Z,47.86
2023-05-25T22:12:20.358Z,47.94
2023-05-25T22:14:47.083Z,48.18
2023-05-25T22:17:15.300Z,47.98
2023-05-25T22:19:44.817Z,48.48
2023-05-25T22:22:11.752Z,48.56
2023-05-25T22:24:38.414Z,48.68
2023-05-25T22:27:06.110Z,48.69
2023-05-25T22:29:32.723Z,48.83
2023-05-25T22:31:59.396Z,49.16
2023-05-25T22:34:26.106Z,49.08
2023-05-25T22:36:52.816Z,49.11
2023-05-25T22:39:19.471Z,49.40
2023-05-25T22:41:46.230Z,49.59
2023-05-25T22:44:12.887Z,49.79
2023-05-25T22:46:39.609Z,49.72
2023-05-25T22:49:06.338Z,49.77
2023-05-25T22:51:33.004Z,50.14
2023-05-25T22:53:59.660Z,49.92
2023-05-25T22:56:27.387Z,49.98
2023-05-25T22:58:54.105Z,50.41
2023-05-25T23:01:20.802Z,50.41
2023-05-25T23:03:47.515Z,50.42
2023-05-25T23:06:14.377Z,50.67
2023-05-25T23:08:41.104Z,50.65
2023-05-25T23:11:07.830Z,50.68
2023-05-25T23:13:34.470Z,50.69
2023-05-25T23:16:01.163Z,50.63
2023-05-25T23:18:27.857Z,50.76
2023-05-25T23:20:54.560Z,50.66
2023-05-25T23:23:21.570Z,50.65
2023-05-25T23:25:48.234Z,50.80
2023-05-25T23:28:14.890Z,50.84
2023-05-25T23:30:41.581Z,50.52
2023-05-25T23:33:08.559Z,50.73
2023-05-25T23:35:35.474Z,50.79
2023-05-25T23:38:02.130Z,50.69
2023-05-25T23:40:31.576Z,50.74
2023-05-25T23:42:58.316Z,50.84
2023-05-25T23:45:24.985Z,50.80
2023-05-25T23:47:51.824Z,50.85
2023-05-25T23:50:18.642Z,50.65
2023-05-25T23:52:46.385Z,50.44
2023-05-25T23:55:13.855Z,50.50
2023-05-25T23:57:40.808Z,50.60
